Time;durP1;ratioP1;P1;durP2;ratioP2;P2;SDS_P1;SDS_P2;PMS_P1;PMS_P2;Temp;Humidity;BMP_temperature;BMP_pressure;BME280_temperature;BME280_humidity;BME280_pressure;Samples;Min_cycle;Max_cycle;Signal;HPM_P1;HPM_P2
2022/08/31 00:03:53;;;;;;;2.88;2.35;;;;;;;17.33;58.51;101455.13;687421;28;1291;-92
2022/08/31 00:04:14;;;;;;;2.60;2.22;;;;;;;17.30;58.64;101452.44;678114;29;1523;-91
2022/08/31 00:04:35;;;;;;;2.22;2.03;;;;;;;17.30;58.56;101455.09;680822;29;1916;-92
2022/08/31 00:04:57;;;;;;;2.38;2.15;;;;;;;17.27;58.67;101455.94;683309;29;1739;-92
2022/08/31 00:05:18;;;;;;;2.70;2.20;;;;;;;17.31;58.66;101460.38;680730;29;1159;-91
2022/08/31 00:05:39;;;;;;;2.60;2.25;;;;;;;17.24;58.59;101451.53;683516;29;1424;-92
2022/08/31 00:06:03;;;;;;;2.45;2.20;;;;;;;17.28;58.57;101451.56;685834;28;1315;-92
2022/08/31 00:06:23;;;;;;;2.50;2.30;;;;;;;17.31;59.00;101463.03;678337;29;1345;-92
2022/08/31 00:06:44;;;;;;;2.50;2.30;;;;;;;17.23;58.97;101452.38;684144;28;2243;-92
2022/08/31 00:07:05;;;;;;;2.30;2.10;;;;;;;17.26;58.62;101459.44;680741;29;1048;-92
2022/08/31 00:07:30;;;;;;;2.30;2.00;;;;;;;17.28;58.77;101462.09;683306;28;1171;-92
2022/08/31 00:07:52;;;;;;;2.80;2.13;;;;;;;17.19;58.79;101447.91;684470;28;1468;-92
2022/08/31 00:08:14;;;;;;;2.47;2.28;;;;;;;17.30;58.88;101455.09;684016;28;1274;-92
2022/08/31 00:08:35;;;;;;;2.40;2.20;;;;;;;17.19;58.69;101447.91;678045;29;1394;-92
2022/08/31 00:08:59;;;;;;;2.30;2.10;;;;;;;17.20;58.79;101447.03;678080;29;1159;-92
2022/08/31 00:09:20;;;;;;;2.13;1.92;;;;;;;17.27;58.51;101466.47;680371;29;1469;-92
2022/08/31 00:09:41;;;;;;;2.15;1.95;;;;;;;17.24;58.90;101451.53;680462;29;1517;-92
2022/08/31 00:10:20;;;;;;;2.65;2.20;;;;;;;17.18;58.72;101451.44;680901;29;1238;-92
2022/08/31 00:10:46;;;;;;;3.38;2.22;;;;;;;17.23;58.87;101462.94;677862;29;1204;-93
2022/08/31 00:11:12;;;;;;;2.70;2.13;;;;;;;17.23;58.94;101462.06;683316;28;1166;-92
2022/08/31 00:11:34;;;;;;;2.40;2.20;;;;;;;17.20;59.06;101454.97;683081;28;1306;-92
2022/08/31 00:11:55;;;;;;;2.45;2.25;;;;;;;17.18;59.00;101451.44;678102;29;1220;-92
2022/08/31 00:12:19;;;;;;;2.40;2.20;;;;;;;17.22;58.92;101455.03;685815;28;1266;-92
2022/08/31 00:13:13;;;;;;;2.50;2.30;;;;;;;17.22;59.15;101463.81;688468;28;1623;-92
2022/08/31 00:13:35;;;;;;;3.60;2.00;;;;;;;17.16;59.17;101453.16;678065;29;1297;-92
2022/08/31 00:13:59;;;;;;;4.25;2.05;;;;;;;17.16;58.89;101453.16;680669;29;1330;-92
2022/08/31 00:14:20;;;;;;;4.10;2.20;;;;;;;17.16;59.19;101458.44;690170;28;1177;-93
2022/08/31 00:14:41;;;;;;;3.30;2.10;;;;;;;17.12;59.12;101446.06;677509;29;1251;-92
2022/08/31 00:15:02;;;;;;;2.70;1.90;;;;;;;17.19;58.99;101458.47;680691;28;1437;-92
2022/08/31 00:15:24;;;;;;;3.30;1.90;;;;;;;17.18;59.07;101461.97;683170;29;1298;-91
2022/08/31 00:15:45;;;;;;;2.90;1.92;;;;;;;17.16;58.97;101455.81;679520;29;1262;-92
2022/08/31 00:16:09;;;;;;;2.40;1.90;;;;;;;17.16;59.06;101452.28;672783;29;1233;-92
2022/08/31 00:16:33;;;;;;;2.10;1.90;;;;;;;17.21;59.22;101462.03;680568;29;1420;-92
2022/08/31 00:16:55;;;;;;;2.13;1.92;;;;;;;17.12;59.19;101451.34;687200;28;1424;-92
2022/08/31 00:17:16;;;;;;;2.47;2.10;;;;;;;17.21;59.25;101463.78;682979;29;1296;-92
2022/08/31 00:17:40;;;;;;;2.40;2.20;;;;;;;17.09;59.12;101446.06;680249;29;1294;-92
2022/08/31 00:18:04;;;;;;;2.40;2.20;;;;;;;17.20;59.29;101454.97;680508;28;1590;-91
2022/08/31 00:18:25;;;;;;;2.40;2.20;;;;;;;17.09;59.21;101440.78;685768;28;1075;-92
2022/08/31 00:18:51;;;;;;;2.55;2.17;;;;;;;17.09;59.09;101443.41;680654;29;1276;-92
2022/08/31 00:19:15;;;;;;;2.50;2.13;;;;;;;17.16;59.27;101453.16;672655;29;1245;-92
2022/08/31 00:19:36;;;;;;;3.40;2.20;;;;;;;17.16;59.20;101458.44;680305;29;1419;-92
2022/08/31 00:19:59;;;;;;;3.33;2.20;;;;;;;17.14;59.27;101452.25;685719;28;1718;-92
2022/08/31 00:20:24;;;;;;;3.50;2.15;;;;;;;17.10;59.25;101450.47;675462;29;1011;-92
2022/08/31 00:20:47;;;;;;;2.30;2.00;;;;;;;17.10;59.35;101450.47;680725;29;1193;-92
2022/08/31 00:21:07;;;;;;;2.90;2.10;;;;;;;17.12;59.51;101460.16;684736;28;1789;-92
2022/08/31 00:21:28;;;;;;;3.00;2.07;;;;;;;17.14;59.38;101462.78;680443;29;1811;-92
2022/08/31 00:21:50;;;;;;;2.97;2.10;;;;;;;17.11;59.37;101457.50;683890;28;1252;-92
2022/08/31 00:22:11;;;;;;;2.35;2.00;;;;;;;17.14;59.35;101460.16;682986;28;1259;-92
2022/08/31 00:22:32;;;;;;;2.30;1.95;;;;;;;17.15;59.28;101461.91;678411;29;1648;-92
2022/08/31 00:22:53;;;;;;;2.10;1.90;;;;;;;17.16;59.34;101465.47;683544;28;1272;-93
2022/08/31 00:23:16;;;;;;;2.28;1.80;;;;;;;17.08;59.39;101449.56;685758;28;1284;-93
2022/08/31 00:23:39;;;;;;;2.35;1.90;;;;;;;17.11;59.35;101465.41;680809;28;1247;-93
2022/08/31 00:24:00;;;;;;;3.60;2.25;;;;;;;17.07;59.53;101458.31;677770;29;2317;-93
2022/08/31 00:24:21;;;;;;;3.40;2.50;;;;;;;17.14;59.44;101465.44;677996;29;1174;-93
2022/08/31 00:24:44;;;;;;;3.92;2.67;;;;;;;17.13;59.48;101466.31;675385;29;1916;-93
2022/08/31 00:25:06;;;;;;;3.30;2.45;;;;;;;17.08;59.45;101460.09;680551;29;1665;-93
2022/08/31 00:25:29;;;;;;;3.40;2.35;;;;;;;17.13;59.74;101461.03;677668;29;1261;-93
2022/08/31 00:25:51;;;;;;;3.35;2.10;;;;;;;17.05;59.63;101454.78;678074;29;1226;-93
2022/08/31 00:26:14;;;;;;;4.15;2.20;;;;;;;17.17;59.39;101475.13;683294;29;1388;-93
2022/08/31 00:26:36;;;;;;;3.88;2.13;;;;;;;17.06;59.41;101453.91;683169;29;1335;-93
2022/08/31 00:26:57;;;;;;;3.22;2.28;;;;;;;17.11;59.63;101470.69;675330;29;1752;-93
2022/08/31 00:27:18;;;;;;;2.72;2.30;;;;;;;17.04;59.44;101450.38;679965;29;1814;-93
2022/08/31 00:27:38;;;;;;;2.63;2.42;;;;;;;17.04;59.56;101447.75;677993;29;1291;-93
2022/08/31 00:27:59;;;;;;;2.70;2.50;;;;;;;17.09;59.46;101459.25;675949;29;1872;-93
2022/08/31 00:28:20;;;;;;;3.10;2.50;;;;;;;17.07;59.61;101468.84;680607;29;1256;-93
2022/08/31 00:28:42;;;;;;;3.10;2.33;;;;;;;17.07;59.52;101458.31;685690;28;1269;-93
2022/08/31 00:29:03;;;;;;;2.83;2.22;;;;;;;16.99;59.65;101445.06;680427;29;1182;-93
2022/08/31 00:29:24;;;;;;;2.70;2.20;;;;;;;17.09;59.58;101469.78;683143;29;1349;-93
2022/08/31 00:29:45;;;;;;;3.42;2.25;;;;;;;17.07;59.60;101469.75;677822;29;1822;-92
2022/08/31 00:30:07;;;;;;;3.75;2.30;;;;;;;17.01;59.62;101453.84;678222;29;1868;-93
2022/08/31 00:30:31;;;;;;;3.35;2.22;;;;;;;17.08;59.54;101460.09;677699;29;1475;-93
2022/08/31 00:30:52;;;;;;;2.80;2.10;;;;;;;17.05;59.60;101462.69;683121;29;1243;-93
2022/08/31 00:31:13;;;;;;;2.40;2.00;;;;;;;17.01;59.63;101450.34;685824;28;1782;-93
2022/08/31 00:31:34;;;;;;;2.20;2.00;;;;;;;17.08;59.62;101465.38;680354;29;1481;-93
2022/08/31 00:31:58;;;;;;;2.80;2.10;;;;;;;17.10;59.63;101463.66;685656;28;1360;-93
2022/08/31 00:32:19;;;;;;;3.00;2.20;;;;;;;16.99;59.57;101455.59;688382;28;1221;-93
2022/08/31 00:32:40;;;;;;;3.30;2.30;;;;;;;17.02;59.62;101460.91;680570;29;1158;-93
2022/08/31 00:33:01;;;;;;;2.50;2.30;;;;;;;17.04;59.68;101464.47;680989;29;1596;-93
2022/08/31 00:33:25;;;;;;;2.40;2.20;;;;;;;17.05;59.82;101470.59;677746;29;1377;-93
2022/08/31 00:33:51;;;;;;;2.22;2.03;;;;;;;17.08;59.78;101470.66;679008;29;1876;-93
2022/08/31 00:34:26;;;;;;;2.45;2.13;;;;;;;17.04;59.70;101463.56;680503;29;1251;-93
2022/08/31 00:34:47;;;;;;;2.72;2.20;;;;;;;16.98;59.76;101465.25;678050;29;1293;-93
2022/08/31 00:35:08;;;;;;;3.00;2.20;;;;;;;16.98;59.88;101452.06;683256;29;1190;-93
2022/08/31 00:35:31;;;;;;;2.92;2.15;;;;;;;17.04;60.02;101467.09;683389;29;1134;-93
2022/08/31 00:35:53;;;;;;;3.20;2.15;;;;;;;16.95;59.86;101449.41;672940;29;1308;-93
2022/08/31 00:36:14;;;;;;;2.75;2.13;;;;;;;16.97;59.88;101462.59;678051;29;1116;-93
2022/08/31 00:36:34;;;;;;;2.58;2.20;;;;;;;17.01;59.98;101464.41;678063;29;1098;-93
2022/08/31 00:36:55;;;;;;;3.35;2.20;;;;;;;17.04;59.91;101474.09;678099;29;1247;-93
2022/08/31 00:37:19;;;;;;;3.60;2.20;;;;;;;16.96;59.84;101456.44;680780;29;1166;-93
2022/08/31 00:37:40;;;;;;;3.38;2.00;;;;;;;16.92;59.90;101452.00;683367;28;1345;-93
2022/08/31 00:38:02;;;;;;;2.42;2.10;;;;;;;16.96;59.85;101460.84;683581;28;1206;-93
2022/08/31 00:38:23;;;;;;;3.20;2.20;;;;;;;16.95;59.96;101456.41;680645;29;1320;-93
2022/08/31 00:38:47;;;;;;;3.30;2.10;;;;;;;16.98;59.94;101464.38;676070;29;1201;-93
2022/08/31 00:39:07;;;;;;;2.10;1.90;;;;;;;16.97;60.04;101463.47;683524;29;1201;-93
2022/08/31 00:39:29;;;;;;;2.15;2.00;;;;;;;16.95;60.10;101459.94;686387;28;1228;-93
2022/08/31 00:39:51;;;;;;;2.80;2.20;;;;;;;17.01;60.01;101468.81;689175;28;1297;-91
2022/08/31 00:40:12;;;;;;;2.97;2.28;;;;;;;16.89;60.02;101448.44;681436;29;1198;-93
2022/08/31 00:40:35;;;;;;;3.10;2.25;;;;;;;16.90;60.04;101444.94;676065;29;1171;-93
2022/08/31 00:40:59;;;;;;;2.40;2.20;;;;;;;16.86;60.18;101450.16;689070;28;1439;-93
2022/08/31 00:41:26;;;;;;;2.95;2.45;;;;;;;16.92;60.23;101456.38;688999;28;1193;-92
2022/08/31 00:41:47;;;;;;;2.80;2.35;;;;;;;16.87;60.01;101445.78;676285;29;1562;-93
2022/08/31 00:42:08;;;;;;;3.63;2.30;;;;;;;16.90;60.10;101456.34;683817;28;1278;-92
2022/08/31 00:42:33;;;;;;;3.60;2.17;;;;;;;16.84;60.23;101441.34;683847;28;1223;-93
2022/08/31 00:42:55;;;;;;;3.58;2.00;;;;;;;16.88;60.43;101446.66;678596;29;1203;-93
2022/08/31 00:43:37;;;;;;;2.70;2.20;;;;;;;16.92;60.28;101461.66;683833;28;1307;-93
2022/08/31 00:44:01;;;;;;;2.20;2.00;;;;;;;16.86;60.49;101454.56;683723;29;1688;-93
2022/08/31 00:44:25;;;;;;;2.38;2.17;;;;;;;16.90;60.49;101460.75;681247;29;1130;-93
2022/08/31 00:44:46;;;;;;;3.17;2.38;;;;;;;16.78;60.43;101440.41;682625;28;1887;-93
2022/08/31 00:45:09;;;;;;;3.33;2.40;;;;;;;16.78;60.55;101445.66;686046;28;1317;-93
2022/08/31 00:45:30;;;;;;;3.00;2.30;;;;;;;16.79;60.59;101453.56;684319;28;1558;-92
2022/08/31 00:45:51;;;;;;;2.50;2.22;;;;;;;16.81;60.58;101450.97;679108;29;1295;-93
2022/08/31 00:46:18;;;;;;;2.50;2.30;;;;;;;16.77;60.48;101439.50;686067;28;1212;-92
2022/08/31 00:46:41;;;;;;;2.40;2.20;;;;;;;16.76;60.50;101439.47;688982;28;1292;-93
2022/08/31 00:47:02;;;;;;;2.10;1.90;;;;;;;16.78;60.49;101449.19;678914;29;1905;-93
2022/08/31 00:47:22;;;;;;;2.40;2.20;;;;;;;16.77;60.66;101443.91;676201;29;1336;-92
2022/08/31 00:47:47;;;;;;;2.77;2.30;;;;;;;16.79;60.49;101450.06;683906;29;1231;-93
2022/08/31 00:48:08;;;;;;;2.80;2.30;;;;;;;16.80;60.62;101452.75;677899;29;1650;-93
2022/08/31 00:48:29;;;;;;;2.40;1.98;;;;;;;16.80;60.67;101452.75;684143;29;1328;-92
2022/08/31 00:48:59;;;;;;;2.20;2.00;;;;;;;16.79;60.69;101447.44;686559;28;1216;-93
2022/08/31 00:49:42;;;;;;;1.95;1.85;;;;;;;16.85;60.46;101458.06;681061;29;1234;-93
2022/08/31 00:50:09;;;;;;;2.40;1.90;;;;;;;16.73;60.57;101435.06;678248;29;1635;-93
2022/08/31 00:50:33;;;;;;;3.63;2.10;;;;;;;16.78;60.67;101445.66;683683;28;1382;-94
2022/08/31 00:50:56;;;;;;;4.70;2.17;;;;;;;16.78;60.88;101443.91;681166;29;1720;-93
2022/08/31 00:51:19;;;;;;;3.90;2.10;;;;;;;16.81;60.60;101450.97;673405;29;1628;-93
2022/08/31 00:51:47;;;;;;;2.63;2.20;;;;;;;16.87;60.66;101458.97;683603;28;1496;-93
2022/08/31 00:52:13;;;;;;;2.67;2.47;;;;;;;16.82;60.88;101452.75;688010;28;1690;-93
2022/08/31 00:52:41;;;;;;;2.50;2.20;;;;;;;16.77;60.58;101449.19;683606;28;1122;-93
2022/08/31 00:53:02;;;;;;;2.30;2.10;;;;;;;16.81;60.74;101450.97;678492;29;1585;-93
2022/08/31 00:53:26;;;;;;;2.20;2.00;;;;;;;16.76;60.54;101444.75;680798;29;1225;-93
2022/08/31 00:53:50;;;;;;;2.03;1.90;;;;;;;16.76;60.42;101452.66;678323;29;1588;-93
2022/08/31 00:54:13;;;;;;;2.20;2.00;;;;;;;16.80;60.83;101460.66;675442;29;1225;-94
2022/08/31 00:54:56;;;;;;;2.20;2.00;;;;;;;16.64;60.90;101449.00;677738;29;2159;-93
2022/08/31 00:55:21;;;;;;;2.55;1.90;;;;;;;16.69;61.03;101455.22;675360;29;1232;-93
2022/08/31 00:55:42;;;;;;;2.63;2.10;;;;;;;16.66;60.88;101446.41;680674;29;1349;-92
2022/08/31 00:56:04;;;;;;;2.35;2.15;;;;;;;16.67;60.96;101442.91;687795;28;2288;-93
2022/08/31 00:56:25;;;;;;;2.53;2.33;;;;;;;16.72;61.11;101452.63;677912;29;1281;-93
2022/08/31 00:56:47;;;;;;;2.67;2.47;;;;;;;16.76;60.96;101457.91;683322;28;1431;-93
2022/08/31 00:57:09;;;;;;;2.45;2.25;;;;;;;16.81;60.75;101466.78;680485;29;1309;-93
2022/08/31 00:57:44;;;;;;;2.45;2.17;;;;;;;16.77;60.93;101455.31;675459;29;1824;-93
2022/08/31 00:58:09;;;;;;;3.92;2.30;;;;;;;16.82;60.78;101469.44;685848;28;1288;-93
2022/08/31 00:58:30;;;;;;;4.15;2.30;;;;;;;16.77;60.64;101459.72;685922;28;1232;-93
2022/08/31 00:58:52;;;;;;;3.60;2.25;;;;;;;16.70;60.67;101448.19;675813;29;1628;-92
2022/08/31 00:59:15;;;;;;;4.50;2.25;;;;;;;16.70;60.90;101454.38;675425;29;1179;-92
2022/08/31 00:59:41;;;;;;;3.70;2.13;;;;;;;16.75;60.58;101458.78;683080;28;1119;-93
2022/08/31 01:00:11;;;;;;;2.97;1.92;;;;;;;16.77;60.78;101471.13;680611;29;1638;-93
2022/08/31 01:00:35;;;;;;;2.40;2.03;;;;;;;16.70;60.73;101457.00;677913;29;1314;-93
2022/08/31 01:00:58;;;;;;;2.28;2.08;;;;;;;16.76;60.85;101476.38;685082;28;1419;-93
2022/08/31 01:01:20;;;;;;;2.33;2.13;;;;;;;16.64;60.78;101454.28;678385;29;1165;-93
2022/08/31 01:01:41;;;;;;;2.30;2.10;;;;;;;16.62;61.11;101456.00;678510;29;1353;-93
2022/08/31 01:02:03;;;;;;;2.85;2.13;;;;;;;16.71;61.11;101476.31;683285;28;1546;-92
2022/08/31 01:02:24;;;;;;;3.42;2.10;;;;;;;16.64;61.13;101461.28;683443;28;1492;-93
2022/08/31 01:02:45;;;;;;;3.60;2.10;;;;;;;16.70;61.16;101470.16;680570;29;1031;-93
2022/08/31 01:03:07;;;;;;;3.08;2.10;;;;;;;16.63;61.15;101460.41;684909;28;1691;-93
2022/08/31 01:03:28;;;;;;;2.53;2.00;;;;;;;16.60;61.23;101452.47;680809;29;1316;-93
2022/08/31 01:03:48;;;;;;;2.20;2.00;;;;;;;16.62;61.15;101466.56;676954;29;1262;-93
2022/08/31 01:04:09;;;;;;;3.08;2.08;;;;;;;16.66;61.23;101470.97;681540;28;1722;-93
2022/08/31 01:04:30;;;;;;;3.20;2.20;;;;;;;16.67;61.15;101464.84;680790;28;1173;-92
2022/08/31 01:04:55;;;;;;;3.60;2.25;;;;;;;16.65;61.27;101457.81;681279;29;1250;-93
2022/08/31 01:05:17;;;;;;;2.40;2.20;;;;;;;16.57;61.22;101457.69;688463;28;1224;-93
2022/08/31 01:05:39;;;;;;;2.38;2.10;;;;;;;16.55;61.45;101464.69;677932;29;1331;-93
2022/08/31 01:06:01;;;;;;;3.60;2.10;;;;;;;16.64;61.19;101471.81;673822;29;1616;-93
2022/08/31 01:06:22;;;;;;;3.70;2.20;;;;;;;16.58;61.37;101454.19;682794;29;1472;-93
2022/08/31 01:06:45;;;;;;;3.50;2.20;;;;;;;16.62;61.20;101457.75;678222;29;1598;-93
2022/08/31 01:07:07;;;;;;;3.88;2.40;;;;;;;16.72;61.25;101483.38;675388;29;1186;-93
2022/08/31 01:07:28;;;;;;;3.60;2.38;;;;;;;16.66;61.13;101463.06;680738;29;1208;-93
2022/08/31 01:07:50;;;;;;;3.28;2.20;;;;;;;16.68;61.11;101471.00;684758;28;1477;-93
2022/08/31 01:08:12;;;;;;;2.10;2.00;;;;;;;16.66;61.11;101468.34;678063;29;1225;-93
2022/08/31 01:08:33;;;;;;;2.03;1.92;;;;;;;16.60;61.12;101457.75;683123;29;1374;-93
2022/08/31 01:08:56;;;;;;;3.40;2.20;;;;;;;16.69;61.20;101468.41;686391;28;1488;-92
2022/08/31 01:09:20;;;;;;;6.07;2.42;;;;;;;16.65;61.27;101469.22;680390;28;1278;-93
2022/08/31 01:09:43;;;;;;;7.28;2.60;;;;;;;16.68;61.25;101471.91;677914;29;1111;-93
2022/08/31 01:10:05;;;;;;;5.22;2.30;;;;;;;16.69;61.13;101470.13;680451;29;1577;-93
2022/08/31 01:10:30;;;;;;;2.22;2.03;;;;;;;16.66;61.23;101470.97;680534;29;1297;-93
2022/08/31 01:10:54;;;;;;;2.22;2.03;;;;;;;16.62;61.27;101456.00;679880;29;1195;-93
2022/08/31 01:11:18;;;;;;;2.70;2.20;;;;;;;16.72;61.21;101473.72;680591;29;1282;-93
2022/08/31 01:11:41;;;;;;;2.70;2.10;;;;;;;16.68;61.20;101466.63;680569;29;1264;-93
2022/08/31 01:12:03;;;;;;;3.03;2.10;;;;;;;16.65;61.10;101460.44;680556;29;1324;-93
2022/08/31 01:12:26;;;;;;;3.25;2.20;;;;;;;16.74;61.20;101480.75;683094;28;1591;-93
2022/08/31 01:12:50;;;;;;;3.28;2.20;;;;;;;16.68;61.37;101473.66;683375;28;1318;-93
2022/08/31 01:13:12;;;;;;;2.30;2.10;;;;;;;16.63;61.17;101457.78;677349;29;1266;-93
2022/08/31 01:13:33;;;;;;;2.20;2.00;;;;;;;16.65;61.13;101466.56;680608;29;1343;-93
2022/08/31 01:13:55;;;;;;;2.10;1.90;;;;;;;16.63;61.32;101463.03;683012;28;1515;-93
2022/08/31 01:14:16;;;;;;;2.13;1.98;;;;;;;16.67;61.13;101470.09;683136;28;1336;-93
2022/08/31 01:14:40;;;;;;;2.20;2.00;;;;;;;16.71;61.20;101474.56;685747;28;1277;-93
2022/08/31 01:15:05;;;;;;;2.25;2.00;;;;;;;16.62;61.07;101456.00;677849;29;1123;-93
2022/08/31 01:15:28;;;;;;;2.40;2.10;;;;;;;16.67;61.08;101464.84;678059;29;1367;-93
2022/08/31 01:15:55;;;;;;;2.30;2.10;;;;;;;16.70;61.18;101469.28;682772;28;1214;-93
2022/08/31 01:16:23;;;;;;;2.20;2.00;;;;;;;16.70;60.90;101474.53;677734;29;1289;-93
2022/08/31 01:16:50;;;;;;;3.13;2.10;;;;;;;16.66;61.06;101470.97;672623;29;1603;-93
2022/08/31 01:17:11;;;;;;;3.15;2.10;;;;;;;16.63;61.05;101460.41;680445;29;1445;-92
2022/08/31 01:17:35;;;;;;;2.20;2.00;;;;;;;16.64;61.17;101459.53;680497;29;1362;-93
2022/08/31 01:18:00;;;;;;;2.00;1.90;;;;;;;16.70;61.18;101475.44;680521;29;1180;-92
2022/08/31 01:18:23;;;;;;;2.75;2.08;;;;;;;16.61;61.12;101459.50;683113;29;1229;-93
2022/08/31 01:18:45;;;;;;;3.08;2.10;;;;;;;16.67;61.24;101472.75;677823;29;1424;-93
2022/08/31 01:19:19;;;;;;;3.10;2.20;;;;;;;16.68;61.42;101469.28;681629;28;1551;-93
2022/08/31 01:19:49;;;;;;;3.10;2.10;;;;;;;16.72;61.03;101478.97;679488;29;1798;-93
2022/08/31 01:20:20;;;;;;;2.72;1.85;;;;;;;16.71;61.11;101464.03;672644;29;1229;-93
2022/08/31 01:21:13;;;;;;;3.17;2.08;;;;;;;16.84;61.05;101478.25;682628;29;1127;-93
2022/08/31 01:21:43;;;;;;;2.97;2.20;;;;;;;16.80;60.90;101470.28;683386;28;1258;-93
2022/08/31 01:22:04;;;;;;;2.42;2.22;;;;;;;16.89;60.84;101478.31;675186;29;2265;-93
2022/08/31 01:22:37;;;;;;;2.50;2.20;;;;;;;16.82;60.91;101472.09;679053;29;1649;-92
2022/08/31 01:23:24;;;;;;;3.83;2.40;;;;;;;16.90;60.91;101479.22;677921;29;1533;-93
2022/08/31 01:23:45;;;;;;;3.10;2.30;;;;;;;16.93;60.63;101474.88;683126;29;1253;-93
2022/08/31 01:24:08;;;;;;;3.50;2.28;;;;;;;16.95;60.64;101481.03;680226;29;1643;-93
2022/08/31 01:24:31;;;;;;;3.20;2.05;;;;;;;16.96;60.67;101482.81;672565;29;1222;-93
2022/08/31 01:24:54;;;;;;;2.20;2.00;;;;;;;16.93;60.74;101471.34;683137;29;1378;-93
2022/08/31 01:25:16;;;;;;;3.30;2.13;;;;;;;16.93;60.33;101471.34;683052;29;1138;-93
2022/08/31 01:25:40;;;;;;;3.20;2.20;;;;;;;16.98;60.52;101467.88;675237;29;1281;-93
2022/08/31 01:26:04;;;;;;;2.50;2.10;;;;;;;16.99;60.31;101477.56;680193;29;1592;-93
2022/08/31 01:26:28;;;;;;;2.30;2.10;;;;;;;16.98;60.34;101475.78;672489;29;1189;-91
2022/08/31 01:26:52;;;;;;;2.47;2.10;;;;;;;16.99;60.31;101466.13;677687;29;1219;-93
2022/08/31 01:27:17;;;;;;;3.20;2.33;;;;;;;16.95;60.27;101459.03;680535;29;1158;-93
2022/08/31 01:27:37;;;;;;;2.88;2.30;;;;;;;17.02;60.17;101465.31;675465;29;1322;-93
2022/08/31 01:28:03;;;;;;;3.00;2.20;;;;;;;17.05;60.34;101470.59;688310;28;1458;-93
2022/08/31 01:28:24;;;;;;;2.28;1.90;;;;;;;16.98;59.97;101454.69;685832;28;1341;-93
2022/08/31 01:28:45;;;;;;;2.20;2.00;;;;;;;17.01;60.11;101464.41;677900;29;1244;-93
2022/08/31 01:29:07;;;;;;;2.20;2.00;;;;;;;17.00;60.05;101465.28;675286;29;1496;-93
2022/08/31 01:29:28;;;;;;;2.33;2.13;;;;;;;17.04;60.14;101468.84;680271;29;1282;-93
2022/08/31 01:29:49;;;;;;;2.30;2.10;;;;;;;17.04;60.09;101474.09;684238;28;1353;-93
2022/08/31 01:30:18;;;;;;;3.43;2.20;;;;;;;17.02;60.04;101475.84;672456;29;1254;-93
2022/08/31 01:30:42;;;;;;;3.83;2.30;;;;;;;16.97;60.10;101471.38;681074;29;1801;-93
2022/08/31 01:31:06;;;;;;;2.40;2.20;;;;;;;17.08;60.02;101486.47;682997;28;1786;-93
2022/08/31 01:31:34;;;;;;;3.10;2.17;;;;;;;17.03;60.05;101477.63;672346;29;1131;-93
2022/08/31 01:31:56;;;;;;;2.70;1.90;;;;;;;16.94;60.28;101460.81;681472;29;1874;-92
2022/08/31 01:32:20;;;;;;;2.28;1.92;;;;;;;17.05;60.12;101489.06;682933;28;1201;-93
2022/08/31 01:32:41;;;;;;;2.00;1.90;;;;;;;16.93;60.14;101472.22;677804;29;1269;-93
2022/08/31 01:33:02;;;;;;;2.10;2.00;;;;;;;16.97;60.08;101473.16;685520;28;1703;-93
2022/08/31 01:33:25;;;;;;;2.05;1.95;;;;;;;17.03;60.20;101477.63;680655;28;1233;-93
2022/08/31 01:33:47;;;;;;;2.80;1.95;;;;;;;16.95;60.45;101470.50;679028;29;1346;-92
2022/08/31 01:34:11;;;;;;;2.85;1.90;;;;;;;16.97;60.00;101473.16;675190;29;1131;-93
2022/08/31 01:34:33;;;;;;;1.90;1.70;;;;;;;16.97;60.11;101479.28;680326;29;1315;-93
2022/08/31 01:34:55;;;;;;;1.88;1.75;;;;;;;16.91;60.26;101473.94;683124;29;1527;-93
2022/08/31 01:35:16;;;;;;;1.80;1.70;;;;;;;16.88;60.33;101463.38;680228;29;1914;-93
2022/08/31 01:35:42;;;;;;;3.40;1.90;;;;;;;16.92;60.30;101469.56;675104;29;1418;-93
2022/08/31 01:36:05;;;;;;;3.40;2.00;;;;;;;16.97;60.21;101486.34;685471;28;1439;-93
2022/08/31 01:36:27;;;;;;;2.88;1.90;;;;;;;16.80;60.41;101465.03;680527;29;1438;-93
2022/08/31 01:36:51;;;;;;;2.10;1.90;;;;;;;16.91;60.39;101487.13;680236;29;1512;-93
2022/08/31 01:37:12;;;;;;;2.30;2.10;;;;;;;16.92;60.32;101477.47;680301;29;1233;-93
2022/08/31 01:37:33;;;;;;;4.03;2.30;;;;;;;16.88;60.34;101471.28;680429;29;1302;-93
2022/08/31 01:37:56;;;;;;;4.18;2.40;;;;;;;16.84;60.30;101467.72;680549;28;1506;-93
2022/08/31 01:38:17;;;;;;;4.25;2.25;;;;;;;16.85;60.48;101473.88;685554;28;1291;-93
2022/08/31 01:38:38;;;;;;;2.20;2.00;;;;;;;16.77;60.63;101475.53;680547;29;1170;-93
2022/08/31 01:39:01;;;;;;;2.03;1.80;;;;;;;16.84;60.52;101480.03;683076;29;1251;-93
2022/08/31 01:39:24;;;;;;;2.30;1.75;;;;;;;16.86;60.55;101475.66;680997;28;1502;-93
2022/08/31 01:39:45;;;;;;;3.88;1.98;;;;;;;16.85;60.64;101481.78;685676;28;1249;-93
2022/08/31 01:40:07;;;;;;;3.60;2.00;;;;;;;16.79;60.83;101466.75;683018;29;1254;-93
2022/08/31 01:40:43;;;;;;;3.60;2.00;;;;;;;16.77;60.65;101465.00;672641;29;1246;-94
2022/08/31 01:41:05;;;;;;;2.30;2.10;;;;;;;16.75;60.80;101453.53;680370;29;1131;-93
2022/08/31 01:41:26;;;;;;;2.10;2.00;;;;;;;16.80;60.67;101475.56;683021;28;1302;-93
2022/08/31 01:41:47;;;;;;;2.10;2.00;;;;;;;16.77;60.85;101470.25;677900;29;1845;-93
2022/08/31 01:42:08;;;;;;;2.08;1.98;;;;;;;16.85;60.67;101484.44;670852;29;1679;-93
2022/08/31 01:42:29;;;;;;;2.10;2.00;;;;;;;16.74;60.59;101465.84;680189;29;1326;-93
2022/08/31 01:42:50;;;;;;;2.20;2.00;;;;;;;16.75;60.89;101470.22;683219;29;1239;-93
2022/08/31 01:43:10;;;;;;;2.20;2.00;;;;;;;16.78;60.76;101472.91;680449;29;1408;-93
2022/08/31 01:43:33;;;;;;;2.30;2.10;;;;;;;16.73;60.78;101466.69;677966;29;1144;-93
2022/08/31 01:43:54;;;;;;;2.67;2.20;;;;;;;16.79;60.75;101473.78;683054;29;1292;-93
2022/08/31 01:44:19;;;;;;;2.78;2.13;;;;;;;16.78;60.74;101482.56;683028;29;1272;-93
2022/08/31 01:44:40;;;;;;;2.10;1.90;;;;;;;16.74;60.70;101470.19;679748;28;1951;-93
2022/08/31 01:45:02;;;;;;;2.10;1.90;;;;;;;16.85;60.71;101487.06;681217;29;1960;-93
2022/08/31 01:45:23;;;;;;;2.20;2.00;;;;;;;16.82;60.66;101487.00;683041;29;1276;-93
2022/08/31 01:45:44;;;;;;;2.20;2.00;;;;;;;16.81;60.77;101477.31;682970;29;1134;-93
2022/08/31 01:46:08;;;;;;;2.30;2.10;;;;;;;16.71;60.74;101466.66;685227;28;1641;-94
2022/08/31 01:46:31;;;;;;;2.30;2.10;;;;;;;16.78;60.83;101477.31;680269;29;1280;-93
2022/08/31 01:46:55;;;;;;;2.10;2.00;;;;;;;16.70;60.69;101461.38;675272;29;1408;-93
2022/08/31 01:47:16;;;;;;;2.10;2.00;;;;;;;16.74;60.71;101470.19;675135;29;1191;-93
2022/08/31 01:47:39;;;;;;;2.20;2.10;;;;;;;16.74;60.76;101473.75;675200;29;1234;-93
2022/08/31 01:48:00;;;;;;;2.30;2.10;;;;;;;16.70;60.68;101464.91;675787;29;1931;-93
2022/08/31 01:48:22;;;;;;;3.15;2.10;;;;;;;16.72;60.82;101470.22;681633;29;1395;-93
2022/08/31 01:48:44;;;;;;;3.95;2.10;;;;;;;16.71;60.75;101471.94;683069;29;1199;-93
2022/08/31 01:49:05;;;;;;;4.60;2.10;;;;;;;16.75;60.72;101469.34;677692;29;1304;-93
2022/08/31 01:49:27;;;;;;;3.90;2.40;;;;;;;16.71;60.77;101471.94;680327;29;1217;-93
2022/08/31 01:49:47;;;;;;;3.45;2.50;;;;;;;16.80;60.78;101483.47;674873;29;1534;-93
2022/08/31 01:50:09;;;;;;;2.93;2.73;;;;;;;16.68;60.97;101471.91;675068;29;1376;-92
2022/08/31 01:50:30;;;;;;;2.60;2.40;;;;;;;16.71;60.81;101479.84;680280;29;1221;-93
2022/08/31 01:50:52;;;;;;;2.40;2.20;;;;;;;16.69;60.70;101478.94;680379;29;1425;-93
2022/08/31 01:51:15;;;;;;;2.22;2.03;;;;;;;16.71;60.73;101479.84;680552;29;1296;-93
2022/08/31 01:51:36;;;;;;;2.30;2.10;;;;;;;16.74;60.81;101486.00;680210;29;2204;-93
2022/08/31 01:51:57;;;;;;;2.25;2.05;;;;;;;16.75;60.89;101485.16;684783;28;1521;-92
2022/08/31 01:52:17;;;;;;;2.45;2.25;;;;;;;16.74;60.91;101486.00;677456;29;1159;-93
2022/08/31 01:52:38;;;;;;;2.60;2.40;;;;;;;16.61;60.89;101464.78;677837;29;1218;-93
2022/08/31 01:53:00;;;;;;;2.80;2.60;;;;;;;16.67;61.29;101480.66;681775;29;1839;-92
2022/08/31 01:53:23;;;;;;;2.80;2.40;;;;;;;16.57;60.93;101468.22;682664;28;1291;-93
2022/08/31 01:53:46;;;;;;;4.60;2.30;;;;;;;16.66;60.92;101488.56;683031;29;1427;-93
2022/08/31 01:54:08;;;;;;;4.35;2.30;;;;;;;16.57;61.12;101469.13;677667;28;1297;-93
2022/08/31 01:54:29;;;;;;;4.00;2.30;;;;;;;16.61;61.20;101477.06;677799;29;1237;-92
2022/08/31 01:54:52;;;;;;;2.55;2.35;;;;;;;16.54;61.24;101463.78;688492;28;1436;-93